Time;durP1;ratioP1;P1;durP2;ratioP2;P2;SDS_P1;SDS_P2;PMS_P1;PMS_P2;Temp;Humidity;BMP_temperature;BMP_pressure;BME280_temperature;BME280_humidity;BME280_pressure;Samples;Min_cycle;Max_cycle;Signal;HPM_P1;HPM_P2
2022/04/05 00:00:13;;;;;;;8.43;7.50;;;6.60;94.20;;;;;;5076200;28;20448;-59
2022/04/05 00:02:40;;;;;;;7.60;6.73;;;6.60;94.30;;;;;;5076400;28;20458;-59
2022/04/05 00:05:08;;;;;;;8.77;7.87;;;6.50;94.40;;;;;;5076281;28;20444;-59
2022/04/05 00:07:35;;;;;;;9.30;8.00;;;6.60;94.60;;;;;;5076057;28;20464;-60
2022/04/05 00:10:03;;;;;;;7.90;7.20;;;6.60;94.30;;;;;;5075781;28;20480;-59
2022/04/05 00:12:30;;;;;;;8.03;7.27;;;6.50;94.60;;;;;;5076193;28;20444;-60
2022/04/05 00:14:58;;;;;;;9.30;7.17;;;6.50;94.40;;;;;;5076035;28;20490;-60
2022/04/05 00:17:26;;;;;;;9.23;7.73;;;6.60;94.60;;;;;;5075894;28;20571;-60
2022/04/05 00:19:53;;;;;;;9.43;8.37;;;6.60;94.40;;;;;;5076023;28;20531;-60
2022/04/05 00:22:20;;;;;;;8.07;7.10;;;6.60;94.80;;;;;;5075829;28;20440;-59
2022/04/05 00:24:47;;;;;;;8.13;7.33;;;6.70;94.70;;;;;;5075591;28;20440;-60
2022/04/05 00:27:14;;;;;;;8.37;7.67;;;6.70;94.70;;;;;;5074721;28;20491;-59
2022/04/05 00:29:42;;;;;;;12.07;8.50;;;6.60;94.80;;;;;;5075142;28;20923;-60
2022/04/05 00:32:10;;;;;;;7.77;7.00;;;6.60;94.70;;;;;;5075683;28;20447;-59
2022/04/05 00:34:37;;;;;;;10.13;7.57;;;6.50;95.10;;;;;;5075647;28;20545;-59
2022/04/05 00:37:05;;;;;;;8.83;8.00;;;6.50;95.10;;;;;;5075417;28;20451;-59
2022/04/05 00:39:32;;;;;;;8.80;8.10;;;6.40;95.30;;;;;;5075531;28;20444;-60
2022/04/05 00:41:59;;;;;;;9.13;7.40;;;6.50;95.50;;;;;;5075191;28;20448;-60
2022/04/05 00:44:27;;;;;;;8.60;7.80;;;6.50;95.30;;;;;;5075247;28;20444;-60
2022/04/05 00:46:59;;;;;;;8.17;7.37;;;6.50;95.40;;;;;;5075257;28;20611;-60
2022/04/05 00:49:31;;;;;;;8.10;7.37;;;6.40;95.40;;;;;;5075239;28;20433;-60
2022/04/05 00:51:59;;;;;;;7.33;6.43;;;6.60;95.50;;;;;;5075146;28;20478;-60
2022/04/05 00:54:27;;;;;;;9.10;7.20;;;6.50;95.50;;;;;;5075156;28;20448;-60
2022/04/05 00:56:56;;;;;;;8.70;7.87;;;6.60;95.40;;;;;;5075091;28;20455;-59
2022/04/05 00:59:24;;;;;;;9.10;7.33;;;6.60;95.70;;;;;;5075285;28;20456;-60
2022/04/05 01:01:54;;;;;;;7.60;6.90;;;6.70;95.20;;;;;;5075101;28;20444;-59
2022/04/05 01:04:22;;;;;;;7.83;7.03;;;6.60;95.20;;;;;;5074762;28;20459;-59
2022/04/05 01:06:52;;;;;;;8.50;7.60;;;6.70;95.50;;;;;;5074866;28;20453;-60
2022/04/05 01:09:21;;;;;;;9.03;8.00;;;6.60;95.20;;;;;;5075468;28;20486;-59
2022/04/05 01:11:49;;;;;;;8.17;7.40;;;6.50;95.30;;;;;;5074922;28;20820;-60
2022/04/05 01:14:16;;;;;;;7.97;7.20;;;6.60;95.30;;;;;;5074560;28;20448;-60
2022/04/05 01:16:43;;;;;;;8.00;7.20;;;6.70;95.30;;;;;;5074610;28;20440;-60
2022/04/05 01:19:10;;;;;;;7.93;7.13;;;6.60;95.30;;;;;;5074447;28;20453;-59
2022/04/05 01:21:38;;;;;;;11.53;8.10;;;6.70;95.40;;;;;;5074927;28;20537;-59
2022/04/05 01:24:08;;;;;;;8.43;7.60;;;6.70;95.20;;;;;;5074839;28;20453;-59
2022/04/05 01:26:43;;;;;;;13.50;7.67;;;6.70;95.50;;;;;;5074392;28;20487;-60
2022/04/05 01:29:10;;;;;;;8.20;7.10;;;6.70;95.50;;;;;;5074517;28;20468;-61
2022/04/05 01:31:39;;;;;;;8.27;7.40;;;6.70;95.90;;;;;;5074474;28;20451;-60
2022/04/05 01:34:06;;;;;;;9.63;8.40;;;6.80;97.10;;;;;;5074520;28;20449;-60
2022/04/05 01:36:33;;;;;;;8.07;7.27;;;6.90;97.80;;;;;;5074333;28;20476;-60
2022/04/05 01:39:00;;;;;;;7.87;7.07;;;6.90;96.30;;;;;;5074141;28;20472;-59
2022/04/05 01:41:29;;;;;;;8.73;7.30;;;6.80;96.50;;;;;;5074138;28;20455;-60
2022/04/05 01:43:56;;;;;;;8.57;7.60;;;6.70;96.60;;;;;;5073941;28;20444;-60
2022/04/05 01:46:23;;;;;;;8.83;7.50;;;6.80;96.50;;;;;;5074225;28;20922;-60
2022/04/05 01:48:50;;;;;;;7.63;6.83;;;6.80;96.70;;;;;;5073927;28;20460;-60
2022/04/05 01:51:18;;;;;;;8.43;7.30;;;6.90;96.80;;;;;;5073735;28;20876;-60
2022/04/05 01:53:46;;;;;;;13.33;8.63;;;6.90;97.10;;;;;;5073696;28;20444;-60
2022/04/05 01:56:13;;;;;;;8.70;7.50;;;6.90;96.90;;;;;;5074033;28;20486;-60
2022/04/05 01:58:42;;;;;;;8.70;7.80;;;6.80;97.60;;;;;;5073695;28;20468;-60
2022/04/05 02:01:09;;;;;;;7.10;6.50;;;6.80;97.50;;;;;;5073640;28;20517;-61
2022/04/05 02:03:36;;;;;;;11.07;8.43;;;6.70;98.30;;;;;;5073850;28;20467;-60
2022/04/05 02:06:03;;;;;;;9.10;7.10;;;6.60;99.10;;;;;;5073693;28;20963;-60
2022/04/05 02:08:30;;;;;;;7.77;7.03;;;6.50;99.60;;;;;;5073431;28;20474;-60
2022/04/05 02:10:58;;;;;;;9.30;8.40;;;6.50;99.90;;;;;;5073771;28;20467;-60
2022/04/05 02:13:25;;;;;;;10.47;8.37;;;6.60;99.80;;;;;;5073558;28;20829;-61
2022/04/05 02:15:53;;;;;;;11.93;7.70;;;6.60;99.90;;;;;;5073697;28;20480;-60
2022/04/05 02:18:20;;;;;;;8.10;7.30;;;6.60;99.90;;;;;;5073612;28;20467;-60
2022/04/05 02:20:49;;;;;;;9.13;7.70;;;6.60;99.90;;;;;;5073498;28;20931;-60
2022/04/05 02:23:16;;;;;;;11.10;7.10;;;6.50;99.90;;;;;;5073674;28;20857;-60
2022/04/05 02:25:44;;;;;;;9.00;8.10;;;6.40;99.90;;;;;;5073283;28;20570;-60
2022/04/05 02:28:11;;;;;;;9.90;8.50;;;6.50;99.90;;;;;;5073662;28;20471;-60
2022/04/05 02:30:39;;;;;;;7.60;6.77;;;6.40;99.90;;;;;;5073244;28;20448;-60
2022/04/05 02:33:08;;;;;;;10.43;7.73;;;6.50;99.90;;;;;;5073221;28;20539;-60
2022/04/05 02:35:36;;;;;;;9.20;8.30;;;6.50;99.90;;;;;;5073483;28;20567;-60
2022/04/05 02:38:04;;;;;;;8.17;7.23;;;6.50;99.90;;;;;;5073189;28;21044;-59
2022/04/05 02:40:31;;;;;;;7.97;7.13;;;6.50;99.90;;;;;;5073407;28;20807;-59
2022/04/05 02:42:59;;;;;;;8.37;7.57;;;6.40;99.90;;;;;;5073238;28;20444;-59
2022/04/05 02:45:26;;;;;;;9.93;7.13;;;6.30;99.90;;;;;;5073152;28;20451;-60
2022/04/05 02:47:53;;;;;;;8.07;7.37;;;6.40;99.90;;;;;;5072924;28;20974;-60
2022/04/05 02:50:21;;;;;;;8.60;6.70;;;6.40;99.90;;;;;;5072880;28;20448;-60
2022/04/05 02:52:49;;;;;;;12.00;7.50;;;6.50;99.90;;;;;;5073355;28;20543;-60
2022/04/05 02:55:17;;;;;;;7.90;7.20;;;6.60;99.90;;;;;;5073148;28;20491;-60
2022/04/05 02:57:46;;;;;;;8.90;6.93;;;6.40;99.90;;;;;;5072901;28;20472;-60
2022/04/05 03:00:17;;;;;;;13.03;8.20;;;6.50;99.90;;;;;;5073394;28;20498;-60
2022/04/05 03:02:45;;;;;;;7.73;7.03;;;6.40;99.90;;;;;;5073245;28;20428;-60
2022/04/05 03:05:13;;;;;;;7.97;7.20;;;6.40;99.90;;;;;;5073318;28;20474;-59
2022/04/05 03:07:42;;;;;;;10.20;7.97;;;6.30;99.90;;;;;;5072887;28;20508;-59
2022/04/05 03:10:11;;;;;;;8.43;7.63;;;6.50;99.90;;;;;;5072935;28;20931;-59
2022/04/05 03:12:39;;;;;;;10.80;7.63;;;6.40;99.90;;;;;;5072907;28;20530;-61
2022/04/05 03:15:09;;;;;;;9.30;8.40;;;6.50;99.90;;;;;;5073090;28;20452;-60
2022/04/05 03:17:41;;;;;;;8.30;7.43;;;6.40;99.90;;;;;;5073198;28;20474;-59
2022/04/05 03:20:12;;;;;;;9.30;7.10;;;6.40;99.90;;;;;;5072910;28;20432;-60
2022/04/05 03:22:42;;;;;;;8.80;7.90;;;6.30;99.90;;;;;;5073060;28;20486;-60
2022/04/05 03:25:10;;;;;;;9.63;7.93;;;6.40;99.90;;;;;;5073052;28;20559;-60
2022/04/05 03:27:40;;;;;;;9.60;7.33;;;6.40;99.90;;;;;;5072599;28;20537;-60
2022/04/05 03:30:08;;;;;;;8.83;7.93;;;6.40;99.90;;;;;;5073080;28;20429;-60
2022/04/05 03:32:36;;;;;;;9.40;8.57;;;6.40;99.90;;;;;;5072820;28;20448;-60
2022/04/05 03:35:03;;;;;;;8.37;7.30;;;6.40;99.90;;;;;;5072608;28;20478;-59
2022/04/05 03:37:31;;;;;;;10.63;7.90;;;6.40;99.90;;;;;;5072772;28;20464;-60
2022/04/05 03:40:00;;;;;;;8.93;8.13;;;6.40;99.90;;;;;;5073047;28;20466;-60
2022/04/05 03:42:28;;;;;;;11.20;8.20;;;6.40;99.90;;;;;;5073079;28;20489;-60
2022/04/05 03:44:55;;;;;;;8.50;7.70;;;6.40;99.90;;;;;;5072444;28;20467;-60
2022/04/05 03:47:23;;;;;;;7.93;7.23;;;6.40;99.90;;;;;;5072835;28;20476;-59
2022/04/05 03:49:50;;;;;;;8.40;7.60;;;6.40;99.90;;;;;;5072964;28;20534;-59
2022/04/05 03:52:17;;;;;;;8.00;7.20;;;6.50;99.90;;;;;;5072488;28;20456;-59
2022/04/05 03:54:44;;;;;;;9.00;8.03;;;6.60;99.90;;;;;;5072228;28;20452;-60
2022/04/05 03:57:13;;;;;;;8.20;6.60;;;6.50;99.90;;;;;;5072510;28;20843;-60
2022/04/05 03:59:40;;;;;;;9.03;8.13;;;6.50;99.90;;;;;;5072719;28;20451;-60
2022/04/05 04:02:07;;;;;;;7.80;7.03;;;6.50;99.90;;;;;;5072683;28;20444;-59
2022/04/05 04:04:34;;;;;;;7.07;6.47;;;6.60;99.90;;;;;;5075820;28;20953;-60
2022/04/05 04:07:02;;;;;;;8.87;7.90;;;6.60;99.90;;;;;;5076198;28;20526;-59
2022/04/05 04:09:29;;;;;;;8.20;7.50;;;6.70;99.90;;;;;;5076074;28;20456;-60
2022/04/05 04:11:56;;;;;;;8.90;8.10;;;6.70;99.90;;;;;;5075723;28;20486;-59
2022/04/05 04:14:25;;;;;;;7.83;7.13;;;6.80;99.90;;;;;;5076136;28;20518;-60
2022/04/05 04:16:52;;;;;;;8.63;7.07;;;6.80;99.90;;;;;;5075820;28;20476;-60
2022/04/05 04:19:19;;;;;;;8.07;7.30;;;6.70;99.90;;;;;;5075584;28;20458;-60
2022/04/05 04:21:46;;;;;;;9.13;8.20;;;6.60;99.90;;;;;;5075630;28;20455;-59
2022/04/05 04:24:13;;;;;;;8.53;7.27;;;6.40;99.90;;;;;;5075854;28;20535;-59
2022/04/05 04:26:40;;;;;;;7.60;6.80;;;6.30;99.90;;;;;;5075419;28;20579;-59
2022/04/05 04:29:07;;;;;;;9.73;8.70;;;6.30;99.90;;;;;;5075743;28;20464;-60
2022/04/05 04:31:36;;;;;;;13.00;8.00;;;6.30;99.90;;;;;;5075366;28;20810;-60
2022/04/05 04:34:04;;;;;;;8.53;7.20;;;6.30;99.90;;;;;;5075378;28;20455;-59
2022/04/05 04:36:31;;;;;;;8.10;7.40;;;6.40;99.90;;;;;;5075599;28;20481;-59
2022/04/05 04:38:58;;;;;;;8.80;7.70;;;6.50;99.90;;;;;;5075459;28;20464;-59
2022/04/05 04:41:26;;;;;;;11.30;8.60;;;6.40;99.90;;;;;;5075055;28;20535;-59
2022/04/05 04:43:53;;;;;;;9.57;8.53;;;6.30;99.90;;;;;;5075394;28;20448;-60
2022/04/05 04:46:21;;;;;;;9.17;8.30;;;6.40;99.90;;;;;;5075079;28;20998;-59
2022/04/05 04:48:49;;;;;;;9.40;7.90;;;6.50;99.90;;;;;;5074908;28;20559;-59
2022/04/05 04:51:16;;;;;;;8.90;8.10;;;6.40;99.90;;;;;;5075249;28;20473;-60
2022/04/05 04:53:43;;;;;;;10.23;8.80;;;6.30;99.90;;;;;;5075199;28;20448;-60
2022/04/05 04:56:11;;;;;;;8.90;7.40;;;6.30;99.90;;;;;;5075251;28;20978;-60
2022/04/05 04:58:39;;;;;;;9.70;7.47;;;6.30;99.90;;;;;;5075233;28;20494;-59
2022/04/05 05:01:06;;;;;;;11.27;9.27;;;6.10;99.90;;;;;;5075327;28;20484;-59
2022/04/05 05:03:33;;;;;;;8.70;7.80;;;6.00;99.90;;;;;;5075060;28;20444;-60
2022/04/05 05:06:03;;;;;;;10.37;8.00;;;6.10;99.90;;;;;;5074996;28;20445;-60
2022/04/05 05:08:30;;;;;;;8.47;7.63;;;6.20;99.90;;;;;;5074932;28;20551;-60
2022/04/05 05:10:57;;;;;;;8.30;7.60;;;6.20;99.90;;;;;;5074457;28;20463;-60
2022/04/05 05:13:25;;;;;;;9.70;8.70;;;6.30;99.90;;;;;;5074327;28;20456;-60
2022/04/05 05:15:52;;;;;;;9.57;7.83;;;6.20;99.90;;;;;;5074416;28;20483;-60
2022/04/05 05:18:22;;;;;;;11.00;9.90;;;6.20;99.90;;;;;;5074355;28;21025;-60
2022/04/05 05:20:49;;;;;;;9.43;8.47;;;6.20;99.90;;;;;;5074416;28;20463;-60
2022/04/05 05:23:17;;;;;;;7.93;7.10;;;6.10;99.90;;;;;;5074607;28;20458;-60
2022/04/05 05:25:46;;;;;;;7.80;7.10;;;6.10;99.90;;;;;;5073866;28;20480;-60
2022/04/05 05:28:13;;;;;;;10.17;9.00;;;6.10;99.90;;;;;;5074371;28;20464;-60
2022/04/05 05:30:40;;;;;;;11.20;8.77;;;6.20;99.90;;;;;;5074099;28;20799;-60
2022/04/05 05:33:08;;;;;;;9.63;8.63;;;6.30;99.90;;;;;;5073943;28;20444;-60
2022/04/05 05:35:35;;;;;;;10.90;7.70;;;6.20;99.90;;;;;;5074026;28;20451;-60
2022/04/05 05:38:03;;;;;;;16.33;9.07;;;6.10;99.90;;;;;;5073969;28;20488;-60
2022/04/05 05:40:31;;;;;;;8.77;7.60;;;6.10;99.90;;;;;;5074213;28;20540;-60
2022/04/05 05:43:01;;;;;;;7.97;7.27;;;6.20;99.90;;;;;;5073734;28;20452;-60
2022/04/05 05:45:30;;;;;;;10.43;9.33;;;6.20;99.90;;;;;;5074002;28;20484;-60
2022/04/05 05:47:57;;;;;;;8.90;8.00;;;6.20;99.90;;;;;;5073827;28;20500;-60
2022/04/05 05:50:25;;;;;;;10.03;9.03;;;6.30;99.90;;;;;;5073451;28;20961;-60
2022/04/05 05:52:53;;;;;;;9.53;8.63;;;6.30;99.90;;;;;;5073649;28;20447;-60
2022/04/05 05:55:22;;;;;;;9.30;7.93;;;6.30;99.90;;;;;;5074246;28;20464;-60
2022/04/05 05:57:51;;;;;;;7.67;6.80;;;6.30;99.90;;;;;;5073279;28;21024;-60
2022/04/05 06:00:21;;;;;;;11.40;7.90;;;6.30;99.90;;;;;;5073673;28;20444;-60
2022/04/05 06:02:50;;;;;;;9.07;8.17;;;6.20;99.90;;;;;;5073933;28;20441;-60
2022/04/05 06:05:17;;;;;;;10.10;9.20;;;6.20;99.90;;;;;;5073405;28;20942;-60
2022/04/05 06:07:44;;;;;;;9.23;8.07;;;6.10;99.90;;;;;;5073248;28;20478;-60
2022/04/05 06:10:13;;;;;;;7.90;7.10;;;6.10;99.90;;;;;;5073344;28;20451;-60
2022/04/05 06:12:43;;;;;;;8.87;8.00;;;6.10;99.90;;;;;;5073663;28;20535;-60
2022/04/05 06:15:13;;;;;;;10.57;8.53;;;6.20;99.90;;;;;;5073293;28;20445;-60
2022/04/05 06:17:42;;;;;;;9.37;8.37;;;6.20;99.90;;;;;;5072970;28;20522;-60
2022/04/05 06:20:12;;;;;;;10.53;9.53;;;6.10;99.90;;;;;;5073375;28;20535;-60
2022/04/05 06:22:43;;;;;;;8.80;7.30;;;6.20;99.90;;;;;;5073134;28;20895;-60
2022/04/05 06:25:12;;;;;;;12.10;7.90;;;6.20;99.90;;;;;;5072939;28;20470;-60
2022/04/05 06:27:39;;;;;;;8.90;7.63;;;6.20;99.90;;;;;;5072455;28;20482;-60
2022/04/05 06:30:08;;;;;;;8.73;7.97;;;6.20;99.90;;;;;;5073599;28;20547;-60
2022/04/05 06:32:37;;;;;;;8.53;7.63;;;6.10;99.90;;;;;;5073017;28;20535;-60
2022/04/05 06:35:06;;;;;;;10.47;8.10;;;6.10;99.90;;;;;;5072920;28;20480;-60
2022/04/05 06:37:35;;;;;;;9.23;7.87;;;6.10;99.90;;;;;;5072714;28;20567;-60
2022/04/05 06:40:03;;;;;;;9.27;7.37;;;6.10;99.90;;;;;;5073004;28;20455;-60
2022/04/05 06:42:30;;;;;;;11.10;8.03;;;6.00;99.90;;;;;;5072796;28;20930;-60
2022/04/05 06:44:57;;;;;;;8.80;8.00;;;6.00;99.90;;;;;;5072716;28;20525;-60
2022/04/05 06:47:25;;;;;;;9.80;8.80;;;6.10;99.90;;;;;;5072768;28;20494;-61
2022/04/05 06:49:54;;;;;;;9.63;8.70;;;6.20;99.90;;;;;;5072826;28;20969;-60
2022/04/05 06:52:21;;;;;;;8.90;7.90;;;6.10;99.90;;;;;;5072948;28;20448;-61
2022/04/05 06:54:51;;;;;;;8.90;8.00;;;6.00;99.90;;;;;;5073015;28;20595;-60
2022/04/05 06:57:18;;;;;;;9.43;8.43;;;6.10;99.90;;;;;;5072372;28;20484;-60
2022/04/05 06:59:45;;;;;;;9.43;8.30;;;6.10;99.90;;;;;;5073011;28;20812;-60
2022/04/05 07:02:12;;;;;;;8.57;7.77;;;6.10;99.90;;;;;;5072477;28;20475;-60
2022/04/05 07:04:40;;;;;;;9.17;8.30;;;6.00;99.90;;;;;;5072447;28;20531;-60
2022/04/05 07:07:08;;;;;;;9.80;7.87;;;6.20;99.90;;;;;;5072521;28;20547;-60
2022/04/05 07:09:36;;;;;;;11.60;7.93;;;6.20;99.90;;;;;;5073050;28;20801;-60
2022/04/05 07:12:03;;;;;;;8.27;7.47;;;6.30;99.90;;;;;;5072511;28;20454;-60
2022/04/05 07:14:31;;;;;;;8.90;8.10;;;6.40;99.90;;;;;;5072792;28;20451;-60
2022/04/05 07:16:58;;;;;;;8.97;7.57;;;6.40;99.90;;;;;;5072719;28;20841;-61
2022/04/05 07:19:26;;;;;;;8.47;7.70;;;6.40;99.90;;;;;;5072651;28;20444;-60
2022/04/05 07:21:53;;;;;;;7.67;6.97;;;6.60;99.90;;;;;;5072321;28;20491;-60
2022/04/05 07:24:21;;;;;;;8.63;7.10;;;6.70;99.90;;;;;;5072755;28;20485;-61
2022/04/05 07:26:48;;;;;;;8.80;6.83;;;6.70;99.90;;;;;;5072219;28;20484;-60
2022/04/05 07:29:16;;;;;;;8.13;6.37;;;6.60;99.90;;;;;;5072596;28;20444;-60
2022/04/05 07:31:43;;;;;;;8.40;7.00;;;6.60;99.90;;;;;;5072310;28;20530;-60
2022/04/05 07:34:10;;;;;;;7.43;6.70;;;6.50;99.90;;;;;;5072259;28;20444;-60
2022/04/05 07:36:37;;;;;;;7.90;6.87;;;6.50;99.90;;;;;;5072559;28;20482;-60
2022/04/05 07:39:05;;;;;;;8.90;8.10;;;6.60;99.90;;;;;;5075939;28;20464;-60
2022/04/05 07:41:33;;;;;;;8.67;7.03;;;6.60;99.90;;;;;;5076392;28;20455;-60
2022/04/05 07:44:00;;;;;;;10.33;7.43;;;6.70;99.90;;;;;;5076148;28;20772;-60
2022/04/05 07:46:28;;;;;;;8.50;7.07;;;6.70;99.90;;;;;;5076108;28;20560;-60
2022/04/05 07:48:55;;;;;;;9.90;7.70;;;6.80;99.90;;;;;;5076475;28;20468;-60
2022/04/05 07:51:22;;;;;;;8.23;7.43;;;6.90;99.90;;;;;;5076006;28;20452;-60
2022/04/05 07:53:49;;;;;;;9.33;8.53;;;6.90;99.90;;;;;;5076012;28;20448;-61
2022/04/05 07:56:16;;;;;;;7.83;6.57;;;6.80;99.90;;;;;;5076205;28;20470;-60
2022/04/05 07:58:45;;;;;;;8.20;7.27;;;6.90;99.90;;;;;;5076016;28;20579;-60
2022/04/05 08:01:12;;;;;;;8.63;7.17;;;6.90;99.90;;;;;;5075763;28;20448;-60
2022/04/05 08:03:40;;;;;;;9.50;7.27;;;7.00;99.90;;;;;;5076176;28;20448;-60
2022/04/05 08:06:08;;;;;;;9.87;7.50;;;7.10;99.90;;;;;;5075788;28;20487;-60
2022/04/05 08:08:35;;;;;;;7.90;7.07;;;7.10;99.90;;;;;;5075856;28;20507;-60
2022/04/05 08:11:02;;;;;;;7.47;6.77;;;7.10;99.90;;;;;;5075996;28;20483;-60
2022/04/05 08:13:29;;;;;;;7.33;6.63;;;7.20;99.90;;;;;;5075883;28;20542;-60
2022/04/05 08:15:58;;;;;;;8.87;6.60;;;7.40;99.90;;;;;;5075542;28;20448;-61
2022/04/05 08:18:26;;;;;;;9.57;6.67;;;7.40;99.90;;;;;;5075430;28;20490;-60
2022/04/05 08:20:54;;;;;;;8.00;7.20;;;7.50;99.90;;;;;;5075797;28;20452;-60
2022/04/05 08:23:21;;;;;;;8.70;7.43;;;7.60;99.90;;;;;;5075693;28;20505;-60
2022/04/05 08:25:48;;;;;;;9.50;7.73;;;7.70;99.90;;;;;;5075565;28;20666;-60
2022/04/05 08:28:16;;;;;;;8.83;7.40;;;7.80;99.90;;;;;;5075706;28;20500;-60
2022/04/05 08:30:43;;;;;;;9.53;7.10;;;7.70;99.90;;;;;;5075056;28;20958;-60
2022/04/05 08:33:12;;;;;;;7.40;6.70;;;7.70;99.90;;;;;;5075191;28;20934;-61
2022/04/05 08:35:39;;;;;;;7.70;6.97;;;7.70;99.90;;;;;;5075683;28;20486;-60
2022/04/05 08:38:07;;;;;;;7.40;6.60;;;7.70;99.90;;;;;;5074871;28;20488;-60
2022/04/05 08:40:34;;;;;;;9.60;8.60;;;7.80;99.90;;;;;;5075202;28;20531;-60
2022/04/05 08:43:01;;;;;;;8.07;6.97;;;7.80;99.90;;;;;;5075316;28;20818;-60
2022/04/05 08:45:29;;;;;;;8.47;7.33;;;7.80;99.90;;;;;;5074730;28;20519;-60
2022/04/05 08:47:57;;;;;;;8.30;6.93;;;8.10;99.90;;;;;;5074835;28;20551;-60
2022/04/05 08:50:28;;;;;;;7.53;6.80;;;8.10;99.90;;;;;;5074530;28;20528;-60
2022/04/05 08:52:56;;;;;;;6.97;5.10;;;8.10;99.90;;;;;;5074901;28;20929;-61
2022/04/05 08:55:24;;;;;;;7.70;7.00;;;8.20;99.90;;;;;;5074797;28;20509;-60
2022/04/05 08:57:51;;;;;;;8.00;6.80;;;8.20;99.90;;;;;;5074600;28;20575;-61
2022/04/05 09:00:21;;;;;;;5.73;5.10;;;8.30;99.90;;;;;;5074960;28;20810;-61
2022/04/05 09:02:56;;;;;;;8.80;6.50;;;8.30;99.90;;;;;;5074503;28;20512;-60
2022/04/05 09:05:30;;;;;;;7.10;6.30;;;8.40;99.90;;;;;;5074286;28;20824;-60
2022/04/05 09:08:19;;;;;;;7.20;6.60;;;8.50;99.90;;;;;;5074374;28;20829;-60
2022/04/05 09:10:47;;;;;;;6.57;5.27;;;8.60;99.90;;;;;;5074289;28;20905;-60
2022/04/05 09:13:19;;;;;;;6.90;6.30;;;8.70;99.90;;;;;;5074188;28;20534;-60
2022/04/05 09:15:50;;;;;;;5.80;5.20;;;8.80;99.90;;;;;;5074133;28;20433;-60
2022/04/05 09:18:29;;;;;;;6.10;5.43;;;8.80;99.90;;;;;;5074432;28;20677;-61
2022/04/05 09:20:57;;;;;;;5.63;5.23;;;8.80;99.90;;;;;;5074291;28;20443;-60
2022/04/05 09:23:26;;;;;;;6.50;5.50;;;8.70;99.90;;;;;;5074235;28;20555;-59
2022/04/05 09:25:58;;;;;;;6.73;4.70;;;8.80;99.90;;;;;;5073623;28;20922;-60
2022/04/05 09:28:31;;;;;;;5.50;5.00;;;8.80;99.90;;;;;;5073853;28;20467;-59
2022/04/05 09:30:59;;;;;;;5.97;5.37;;;8.80;99.90;;;;;;5073862;28;20539;-60
2022/04/05 09:33:29;;;;;;;6.17;5.57;;;8.80;99.90;;;;;;5073985;28;20444;-60
2022/04/05 09:36:07;;;;;;;7.57;6.00;;;8.70;99.90;;;;;;5073630;28;20891;-59
2022/04/05 09:38:34;;;;;;;5.87;5.30;;;8.70;99.90;;;;;;5073703;28;20567;-60
2022/04/05 09:41:17;;;;;;;7.43;6.13;;;9.00;99.90;;;;;;5073783;28;20523;-60
2022/04/05 09:43:59;;;;;;;14.90;5.40;;;9.20;99.90;;;;;;5073885;28;20971;-60
2022/04/05 09:46:28;;;;;;;7.97;5.80;;;9.20;99.90;;;;;;5073809;28;20428;-60
2022/04/05 09:49:06;;;;;;;5.90;5.30;;;9.20;99.90;;;;;;5073633;28;20521;-60
2022/04/05 09:51:40;;;;;;;8.43;5.90;;;9.10;99.90;;;;;;5073832;28;20443;-60
2022/04/05 09:54:08;;;;;;;5.00;4.60;;;9.10;99.90;;;;;;5073693;28;21003;-62
2022/04/05 09:56:38;;;;;;;9.53;6.23;;;9.00;99.90;;;;;;5074087;28;20456;-59
2022/04/05 09:59:14;;;;;;;4.60;4.20;;;8.80;99.90;;;;;;5073553;28;20480;-61
2022/04/05 10:01:42;;;;;;;5.23;4.73;;;8.80;99.90;;;;;;5073779;28;20432;-59
2022/04/05 10:04:11;;;;;;;6.03;5.43;;;8.90;99.90;;;;;;5073388;28;20452;-59
2022/04/05 10:06:43;;;;;;;7.97;5.73;;;8.90;99.90;;;;;;5074016;28;20456;-59
2022/04/05 10:09:11;;;;;;;8.27;6.20;;;8.90;99.90;;;;;;5073598;28;20525;-59
2022/04/05 10:11:40;;;;;;;7.50;5.80;;;8.90;99.90;;;;;;5073277;28;20870;-60
2022/04/05 10:14:09;;;;;;;8.40;5.77;;;8.80;99.90;;;;;;5073395;28;20543;-59
2022/04/05 10:16:37;;;;;;;11.10;6.77;;;8.70;99.90;;;;;;5073409;28;20462;-60
2022/04/05 10:19:06;;;;;;;6.20;4.90;;;8.70;99.90;;;;;;5073213;28;20484;-61
2022/04/05 10:21:35;;;;;;;7.27;6.13;;;8.70;99.90;;;;;;5073003;28;20949;-61
2022/04/05 10:24:06;;;;;;;8.70;5.40;;;8.70;99.90;;;;;;5073147;28;20452;-60
2022/04/05 10:26:36;;;;;;;6.50;5.90;;;8.80;99.90;;;;;;5071842;28;20484;-60
2022/04/05 10:29:09;;;;;;;6.60;6.00;;;8.90;99.90;;;;;;5073179;28;20467;-60
2022/04/05 10:31:46;;;;;;;5.43;4.93;;;8.90;99.90;;;;;;5073296;28;20433;-60
2022/04/05 10:34:19;;;;;;;9.07;6.73;;;9.00;99.90;;;;;;5072713;28;20917;-60
2022/04/05 10:37:04;;;;;;;7.67;6.70;;;8.90;99.90;;;;;;5073067;28;20435;-60
2022/04/05 10:39:33;;;;;;;7.87;6.50;;;8.90;99.90;;;;;;5072171;28;20480;-60
2022/04/05 10:42:22;;;;;;;6.70;6.10;;;8.90;99.90;;;;;;5072923;28;20451;-60
2022/04/05 10:44:52;;;;;;;6.27;5.67;;;9.00;99.90;;;;;;5073138;28;20437;-60
2022/04/05 10:47:20;;;;;;;6.27;5.60;;;8.90;99.90;;;;;;5072922;28;20478;-60
2022/04/05 10:49:48;;;;;;;6.57;5.97;;;9.00;99.90;;;;;;5073007;28;20456;-60
2022/04/05 10:52:18;;;;;;;6.47;5.83;;;9.00;99.90;;;;;;5072806;28;20450;-60
2022/04/05 10:54:49;;;;;;;6.30;5.70;;;9.10;99.90;;;;;;5072510;28;20448;-60
2022/04/05 10:57:27;;;;;;;7.40;6.00;;;9.10;99.90;;;;;;5072683;28;21010;-60
2022/04/05 11:00:07;;;;;;;8.90;6.80;;;9.00;99.90;;;;;;5072972;28;20428;-60
2022/04/05 11:02:43;;;;;;;7.20;5.93;;;9.20;99.90;;;;;;5073145;28;20433;-60
2022/04/05 11:05:38;;;;;;;7.03;6.20;;;9.20;99.90;;;;;;5072678;28;20904;-63
2022/04/05 11:08:10;;;;;;;7.17;6.43;;;9.30;99.90;;;;;;5072624;28;20510;-60
2022/04/05 11:10:55;;;;;;;5.43;4.93;;;9.20;99.90;;;;;;5072445;28;20985;-60
2022/04/05 11:13:46;;;;;;;7.70;6.13;;;9.10;99.90;;;;;;5075931;28;20489;-61
2022/04/05 11:16:14;;;;;;;5.57;4.90;;;9.20;99.90;;;;;;5076773;28;20494;-61
2022/04/05 11:18:44;;;;;;;5.87;4.43;;;9.30;99.90;;;;;;5076308;28;20561;-61
2022/04/05 11:21:11;;;;;;;6.27;5.20;;;9.30;99.90;;;;;;5076332;28;20448;-60
2022/04/05 11:23:45;;;;;;;5.30;4.80;;;9.30;99.90;;;;;;5076217;28;20825;-60
2022/04/05 11:26:35;;;;;;;7.90;4.90;;;9.50;99.90;;;;;;5076225;28;20487;-60
2022/04/05 11:29:18;;;;;;;5.47;4.97;;;9.50;99.90;;;;;;5076709;28;20460;-59
2022/04/05 11:31:45;;;;;;;4.63;4.23;;;9.40;99.90;;;;;;5076626;28;20429;-60
2022/04/05 11:34:35;;;;;;;6.13;5.07;;;9.40;99.90;;;;;;5076140;28;20450;-59
2022/04/05 11:37:03;;;;;;;4.63;4.23;;;9.30;99.90;;;;;;5075810;28;20449;-60
2022/04/05 11:39:30;;;;;;;4.80;4.40;;;9.50;99.90;;;;;;5076099;28;20495;-60
2022/04/05 11:42:02;;;;;;;5.23;4.10;;;9.50;99.90;;;;;;5076422;28;20444;-60
2022/04/05 11:44:30;;;;;;;5.63;5.10;;;9.60;99.90;;;;;;5076058;28;20439;-60
2022/04/05 11:46:59;;;;;;;12.90;4.90;;;9.70;99.90;;;;;;5075849;28;20444;-60
2022/04/05 11:49:26;;;;;;;5.30;4.80;;;9.80;99.90;;;;;;5076137;28;20436;-60
2022/04/05 11:51:54;;;;;;;5.50;4.90;;;9.80;99.90;;;;;;5075599;28;20452;-60
2022/04/05 11:54:24;;;;;;;4.30;3.90;;;9.90;99.90;;;;;;5075215;28;20444;-60
2022/04/05 11:56:52;;;;;;;5.10;4.70;;;10.00;99.90;;;;;;5075889;28;20937;-60
2022/04/05 11:59:28;;;;;;;6.20;4.80;;;10.00;99.90;;;;;;5075950;28;20496;-60
2022/04/05 12:01:55;;;;;;;5.50;4.70;;;9.90;99.90;;;;;;5076080;28;20432;-60
2022/04/05 12:04:24;;;;;;;4.67;4.27;;;10.10;99.90;;;;;;5075698;28;20532;-60
2022/04/05 12:06:56;;;;;;;4.57;4.17;;;10.30;99.90;;;;;;5075649;28;20460;-61
2022/04/05 12:09:24;;;;;;;4.47;4.07;;;10.40;99.90;;;;;;5075756;28;20476;-61
2022/04/05 12:11:53;;;;;;;3.90;3.47;;;10.80;99.90;;;;;;5075554;28;20444;-61
2022/04/05 12:14:24;;;;;;;5.10;4.53;;;10.70;99.90;;;;;;5075438;28;20517;-61
2022/04/05 12:16:53;;;;;;;5.80;3.83;;;10.90;99.90;;;;;;5075383;28;20439;-60
2022/04/05 12:19:21;;;;;;;5.50;4.20;;;10.90;99.90;;;;;;5075515;28;20628;-61
2022/04/05 12:21:53;;;;;;;4.70;4.30;;;10.90;99.90;;;;;;5075286;28;20534;-62
2022/04/05 12:24:21;;;;;;;6.67;5.23;;;10.80;99.90;;;;;;5074226;28;20433;-61
2022/04/05 12:26:48;;;;;;;5.77;3.80;;;10.50;99.90;;;;;;5074823;28;20484;-60
2022/04/05 12:29:16;;;;;;;4.63;4.20;;;10.50;99.90;;;;;;5074981;28;20552;-61
2022/04/05 12:31:44;;;;;;;9.20;5.13;;;10.50;99.90;;;;;;5074720;28;20456;-60
2022/04/05 12:34:14;;;;;;;4.60;4.17;;;10.50;99.90;;;;;;5075325;28;20445;-61
2022/04/05 12:36:43;;;;;;;5.43;4.93;;;10.50;99.90;;;;;;5075433;28;20452;-61
2022/04/05 12:39:18;;;;;;;5.53;4.77;;;10.60;99.90;;;;;;5074713;28;20609;-60
2022/04/05 12:41:47;;;;;;;4.37;3.97;;;10.80;99.90;;;;;;5075054;28;20428;-61
2022/04/05 12:44:16;;;;;;;4.43;4.03;;;10.90;99.90;;;;;;5074704;28;20931;-60
2022/04/05 12:46:49;;;;;;;5.00;4.07;;;10.90;99.90;;;;;;5074708;28;20923;-59
2022/04/05 12:49:30;;;;;;;4.63;4.23;;;10.90;99.90;;;;;;5074766;28;20904;-60
2022/04/05 12:52:08;;;;;;;4.60;4.20;;;10.80;99.90;;;;;;5074650;28;20922;-60
2022/04/05 12:54:38;;;;;;;5.27;3.90;;;10.80;99.90;;;;;;5074830;28;20514;-61
2022/04/05 12:57:20;;;;;;;3.97;3.50;;;10.90;99.90;;;;;;5074455;28;20502;-61
2022/04/05 12:59:50;;;;;;;3.80;3.50;;;10.90;99.90;;;;;;5074684;28;20560;-60
2022/04/05 13:02:23;;;;;;;7.67;4.37;;;11.00;99.90;;;;;;5074653;28;20455;-60
2022/04/05 13:04:51;;;;;;;4.10;3.77;;;10.90;99.90;;;;;;5074554;28;20443;-60